sensor_id;sensor_type;location;lat;lon;timestamp;pressure;altitude;pressure_sealevel;temperature;humidity
36234;BME280;43467;50.890;5.982;2023-02-04T00:00:15;101826.19;;;8.35;97.32
36234;BME280;43467;50.890;5.982;2023-02-04T00:02:41;101833.19;;;8.37;97.50
36234;BME280;43467;50.890;5.982;2023-02-04T00:05:07;101826.06;;;8.47;97.22
36234;BME280;43467;50.890;5.982;2023-02-04T00:07:33;101834.13;;;8.33;96.90
36234;BME280;43467;50.890;5.982;2023-02-04T00:09:59;101838.47;;;8.37;95.70
36234;BME280;43467;50.890;5.982;2023-02-04T00:12:24;101829.63;;;8.40;95.87
36234;BME280;43467;50.890;5.982;2023-02-04T00:14:49;101837.59;;;8.38;95.54
36234;BME280;43467;50.890;5.982;2023-02-04T00:17:15;101826.25;;;8.30;94.83
36234;BME280;43467;50.890;5.982;2023-02-04T00:19:40;101847.41;;;8.20;95.42
36234;BME280;43467;50.890;5.982;2023-02-04T00:22:07;101840.41;;;8.19;96.13
36234;BME280;43467;50.890;5.982;2023-02-04T00:24:34;101851.00;;;8.14;96.17
36234;BME280;43467;50.890;5.982;2023-02-04T00:26:59;101850.00;;;8.24;95.74
36234;BME280;43467;50.890;5.982;2023-02-04T00:29:25;101843.09;;;8.11;96.64
36234;BME280;43467;50.890;5.982;2023-02-04T00:31:50;101844.03;;;8.09;96.20
36234;BME280;43467;50.890;5.982;2023-02-04T00:34:15;101851.09;;;8.04;96.20
36234;BME280;43467;50.890;5.982;2023-02-04T00:36:42;101844.06;;;8.06;96.11
36234;BME280;43467;50.890;5.982;2023-02-04T00:39:08;101850.22;;;8.06;96.24
36234;BME280;43467;50.890;5.982;2023-02-04T00:41:33;101857.13;;;8.16;96.08
36234;BME280;43467;50.890;5.982;2023-02-04T00:43:59;101856.22;;;8.20;95.32
36234;BME280;43467;50.890;5.982;2023-02-04T00:46:24;101847.56;;;8.06;95.50
36234;BME280;43467;50.890;5.982;2023-02-04T00:48:49;101846.84;;;7.90;95.77
36234;BME280;43467;50.890;5.982;2023-02-04T00:51:15;101835.38;;;7.94;96.36
36234;BME280;43467;50.890;5.982;2023-02-04T00:53:40;101842.22;;;8.14;94.99
36234;BME280;43467;50.890;5.982;2023-02-04T00:56:06;101839.66;;;8.03;94.24
36234;BME280;43467;50.890;5.982;2023-02-04T00:58:31;101840.41;;;8.17;95.42
36234;BME280;43467;50.890;5.982;2023-02-04T01:00:57;101843.91;;;8.21;94.74
36234;BME280;43467;50.890;5.982;2023-02-04T01:03:22;101847.53;;;8.08;94.39
36234;BME280;43467;50.890;5.982;2023-02-04T01:05:47;101851.16;;;7.98;94.96
36234;BME280;43467;50.890;5.982;2023-02-04T01:08:13;101845.84;;;7.99;95.62
36234;BME280;43467;50.890;5.982;2023-02-04T01:10:38;101845.66;;;8.22;94.49
36234;BME280;43467;50.890;5.982;2023-02-04T01:13:04;101851.75;;;8.27;93.57
36234;BME280;43467;50.890;5.982;2023-02-04T01:15:29;101847.44;;;8.18;92.87
36234;BME280;43467;50.890;5.982;2023-02-04T01:17:54;101843.97;;;8.15;93.86
36234;BME280;43467;50.890;5.982;2023-02-04T01:20:20;101848.34;;;8.16;93.93
36234;BME280;43467;50.890;5.982;2023-02-04T01:22:45;101853.50;;;8.28;93.09
36234;BME280;43467;50.890;5.982;2023-02-04T01:25:11;101856.25;;;8.17;92.74
36234;BME280;43467;50.890;5.982;2023-02-04T01:27:36;101848.25;;;8.29;92.52
36234;BME280;43467;50.890;5.982;2023-02-04T01:30:03;101848.97;;;8.42;92.17
36234;BME280;43467;50.890;5.982;2023-02-04T01:32:28;101854.25;;;8.40;91.58
36234;BME280;43467;50.890;5.982;2023-02-04T01:34:54;101835.78;;;8.40;91.19
36234;BME280;43467;50.890;5.982;2023-02-04T01:37:19;101862.94;;;8.53;90.77
36234;BME280;43467;50.890;5.982;2023-02-04T01:39:44;101855.84;;;8.57;91.17
36234;BME280;43467;50.890;5.982;2023-02-04T01:42:11;101863.66;;;8.64;90.76
36234;BME280;43467;50.890;5.982;2023-02-04T01:44:38;101867.09;;;8.72;90.92
36234;BME280;43467;50.890;5.982;2023-02-04T01:47:04;101862.72;;;8.70;90.39
36234;BME280;43467;50.890;5.982;2023-02-04T01:49:30;101867.06;;;8.75;89.88
36234;BME280;43467;50.890;5.982;2023-02-04T01:51:56;101860.88;;;8.78;89.48
36234;BME280;43467;50.890;5.982;2023-02-04T01:54:21;101873.16;;;8.82;89.42
36234;BME280;43467;50.890;5.982;2023-02-04T01:56:47;101872.31;;;8.78;88.58
36234;BME280;43467;50.890;5.982;2023-02-04T01:59:16;101882.06;;;8.73;88.06
36234;BME280;43467;50.890;5.982;2023-02-04T02:01:44;101891.78;;;8.68;88.52
36234;BME280;43467;50.890;5.982;2023-02-04T02:04:16;101885.53;;;8.77;88.72
36234;BME280;43467;50.890;5.982;2023-02-04T02:06:46;101887.13;;;8.88;88.56
36234;BME280;43467;50.890;5.982;2023-02-04T02:09:13;101879.06;;;9.01;88.96
36234;BME280;43467;50.890;5.982;2023-02-04T02:11:39;101878.94;;;9.13;88.89
36234;BME280;43467;50.890;5.982;2023-02-04T02:14:05;101880.81;;;9.03;88.02
36234;BME280;43467;50.890;5.982;2023-02-04T02:16:30;101869.53;;;8.89;87.92
36234;BME280;43467;50.890;5.982;2023-02-04T02:18:56;101875.38;;;9.14;88.14
36234;BME280;43467;50.890;5.982;2023-02-04T02:21:32;101870.97;;;9.14;87.41
36234;BME280;43467;50.890;5.982;2023-02-04T02:23:59;101879.88;;;9.06;87.17
36234;BME280;43467;50.890;5.982;2023-02-04T02:26:27;101882.41;;;9.13;88.18
36234;BME280;43467;50.890;5.982;2023-02-04T02:28:52;101879.75;;;9.15;87.26
36234;BME280;43467;50.890;5.982;2023-02-04T02:31:20;101878.00;;;9.17;86.92
36234;BME280;43467;50.890;5.982;2023-02-04T02:33:47;101887.63;;;9.19;86.81
36234;BME280;43467;50.890;5.982;2023-02-04T02:36:12;101880.56;;;9.20;86.93
36234;BME280;43467;50.890;5.982;2023-02-04T02:38:39;101893.69;;;9.29;87.20
36234;BME280;43467;50.890;5.982;2023-02-04T02:41:05;101892.56;;;9.42;86.56
36234;BME280;43467;50.890;5.982;2023-02-04T02:43:34;101897.97;;;9.34;85.85
36234;BME280;43467;50.890;5.982;2023-02-04T02:46:00;101890.00;;;9.38;86.87
36234;BME280;43467;50.890;5.982;2023-02-04T02:48:26;101902.25;;;9.45;86.60
36234;BME280;43467;50.890;5.982;2023-02-04T02:50:52;101893.53;;;9.38;86.13
36234;BME280;43467;50.890;5.982;2023-02-04T02:53:19;101887.47;;;9.31;86.34
36234;BME280;43467;50.890;5.982;2023-02-04T02:55:45;101889.34;;;9.22;86.41
36234;BME280;43467;50.890;5.982;2023-02-04T02:58:15;101897.25;;;9.25;87.50
36234;BME280;43467;50.890;5.982;2023-02-04T03:00:41;101886.59;;;9.31;86.81
36234;BME280;43467;50.890;5.982;2023-02-04T03:03:13;101895.28;;;9.39;86.21
36234;BME280;43467;50.890;5.982;2023-02-04T03:05:44;101892.00;;;9.22;85.84
36234;BME280;43467;50.890;5.982;2023-02-04T03:08:13;101899.97;;;9.19;86.83
36234;BME280;43467;50.890;5.982;2023-02-04T03:10:40;101909.59;;;9.24;87.11
36234;BME280;43467;50.890;5.982;2023-02-04T03:13:05;101908.50;;;9.38;86.63
36234;BME280;43467;50.890;5.982;2023-02-04T03:15:31;101916.44;;;9.38;85.61
36234;BME280;43467;50.890;5.982;2023-02-04T03:17:58;101915.59;;;9.37;86.13
36234;BME280;43467;50.890;5.982;2023-02-04T03:20:25;101926.94;;;9.44;85.48
36234;BME280;43467;50.890;5.982;2023-02-04T03:22:52;101924.47;;;9.31;85.25
36234;BME280;43467;50.890;5.982;2023-02-04T03:25:18;101926.31;;;9.25;86.64
36234;BME280;43467;50.890;5.982;2023-02-04T03:27:45;101928.97;;;9.22;86.37
36234;BME280;43467;50.890;5.982;2023-02-04T03:30:11;101927.16;;;9.25;87.53
36234;BME280;43467;50.890;5.982;2023-02-04T03:32:36;101930.69;;;9.29;86.64
36234;BME280;43467;50.890;5.982;2023-02-04T03:35:02;101924.56;;;9.22;87.06
36234;BME280;43467;50.890;5.982;2023-02-04T03:37:27;101950.94;;;9.28;86.04
36234;BME280;43467;50.890;5.982;2023-02-04T03:39:53;101946.59;;;9.24;86.31
36234;BME280;43467;50.890;5.982;2023-02-04T03:42:18;101938.78;;;9.14;86.89
36234;BME280;43467;50.890;5.982;2023-02-04T03:44:43;101964.22;;;9.24;87.55
36234;BME280;43467;50.890;5.982;2023-02-04T03:47:09;101964.06;;;9.36;87.31
36234;BME280;43467;50.890;5.982;2023-02-04T03:49:34;101959.75;;;9.29;86.66
36234;BME280;43467;50.890;5.982;2023-02-04T03:52:01;101957.88;;;9.36;87.21
36234;BME280;43467;50.890;5.982;2023-02-04T03:54:26;101959.75;;;9.27;87.06
36234;BME280;43467;50.890;5.982;2023-02-04T03:56:52;101965.06;;;9.26;87.03
36234;BME280;43467;50.890;5.982;2023-02-04T03:59:17;101971.25;;;9.25;87.40
36234;BME280;43467;50.890;5.982;2023-02-04T04:01:43;101968.78;;;9.13;87.07
36234;BME280;43467;50.890;5.982;2023-02-04T04:04:08;101965.19;;;9.15;87.97
36234;BME280;43467;50.890;5.982;2023-02-04T04:06:33;101950.53;;;8.92;88.23
36234;BME280;43467;50.890;5.982;2023-02-04T04:08:59;101964.47;;;9.01;88.53
36234;BME280;43467;50.890;5.982;2023-02-04T04:11:24;101960.94;;;9.04;88.30
36234;BME280;43467;50.890;5.982;2023-02-04T04:13:49;101956.59;;;9.00;88.79
36234;BME280;43467;50.890;5.982;2023-02-04T04:16:15;101964.63;;;8.89;89.15
36234;BME280;43467;50.890;5.982;2023-02-04T04:18:41;101970.69;;;8.97;89.18
36234;BME280;43467;50.890;5.982;2023-02-04T04:21:06;101969.72;;;9.06;89.21
36234;BME280;43467;50.890;5.982;2023-02-04T04:23:32;101963.59;;;9.02;89.39
36234;BME280;43467;50.890;5.982;2023-02-04T04:25:57;101967.06;;;9.07;89.05
36234;BME280;43467;50.890;5.982;2023-02-04T04:28:22;101974.09;;;9.08;88.33
36234;BME280;43467;50.890;5.982;2023-02-04T04:30:48;101968.19;;;8.86;88.51
36234;BME280;43467;50.890;5.982;2023-02-04T04:33:13;101977.94;;;8.80;89.39
36234;BME280;43467;50.890;5.982;2023-02-04T04:35:38;101976.16;;;8.80;89.15
36234;BME280;43467;50.890;5.982;2023-02-04T04:38:04;101964.78;;;8.75;90.03
36234;BME280;43467;50.890;5.982;2023-02-04T04:40:29;101974.44;;;8.78;89.09
36234;BME280;43467;50.890;5.982;2023-02-04T04:42:55;101980.63;;;8.74;89.39
36234;BME280;43467;50.890;5.982;2023-02-04T04:45:20;101970.06;;;8.72;89.63
36234;BME280;43467;50.890;5.982;2023-02-04T04:47:46;101965.66;;;8.74;89.87
36234;BME280;43467;50.890;5.982;2023-02-04T04:50:12;101971.78;;;8.78;90.19
36234;BME280;43467;50.890;5.982;2023-02-04T04:52:37;101964.84;;;8.71;89.43
36234;BME280;43467;50.890;5.982;2023-02-04T04:55:03;101967.50;;;8.68;90.00
36234;BME280;43467;50.890;5.982;2023-02-04T04:57:29;101975.41;;;8.69;90.26
36234;BME280;43467;50.890;5.982;2023-02-04T04:59:55;101950.84;;;8.63;90.05
36234;BME280;43467;50.890;5.982;2023-02-04T05:02:20;101969.22;;;8.72;90.58
36234;BME280;43467;50.890;5.982;2023-02-04T05:04:46;101972.84;;;8.63;90.14
36234;BME280;43467;50.890;5.982;2023-02-04T05:07:11;101969.22;;;8.72;90.48
36234;BME280;43467;50.890;5.982;2023-02-04T05:09:36;101976.22;;;8.74;90.21
36234;BME280;43467;50.890;5.982;2023-02-04T05:12:02;101978.78;;;8.82;90.21
36234;BME280;43467;50.890;5.982;2023-02-04T05:14:28;101976.97;;;8.85;90.35
36234;BME280;43467;50.890;5.982;2023-02-04T05:16:53;101986.75;;;8.79;89.83
36234;BME280;43467;50.890;5.982;2023-02-04T05:19:18;101990.19;;;8.85;90.47
36234;BME280;43467;50.890;5.982;2023-02-04T05:21:44;101991.06;;;8.84;90.23
36234;BME280;43467;50.890;5.982;2023-02-04T05:24:09;101989.31;;;8.85;90.54
36234;BME280;43467;50.890;5.982;2023-02-04T05:26:34;101984.97;;;8.81;90.36
36234;BME280;43467;50.890;5.982;2023-02-04T05:29:00;101979.75;;;8.75;90.45
36234;BME280;43467;50.890;5.982;2023-02-04T05:31:25;101985.13;;;8.64;91.03
36234;BME280;43467;50.890;5.982;2023-02-04T05:33:51;101998.38;;;8.61;91.44
36234;BME280;43467;50.890;5.982;2023-02-04T05:36:16;101997.47;;;8.62;91.93
36234;BME280;43467;50.890;5.982;2023-02-04T05:38:42;101999.19;;;8.68;91.82
36234;BME280;43467;50.890;5.982;2023-02-04T05:41:07;102004.44;;;8.69;92.39
36234;BME280;43467;50.890;5.982;2023-02-04T05:43:32;102008.75;;;8.76;91.43
36234;BME280;43467;50.890;5.982;2023-02-04T05:45:59;102004.47;;;8.65;91.30
36234;BME280;43467;50.890;5.982;2023-02-04T05:48:24;102014.00;;;8.81;91.23
36234;BME280;43467;50.890;5.982;2023-02-04T05:50:50;102013.19;;;8.74;91.22
36234;BME280;43467;50.890;5.982;2023-02-04T05:53:15;102010.59;;;8.68;91.02
36234;BME280;43467;50.890;5.982;2023-02-04T05:55:40;102019.41;;;8.70;91.21
36234;BME280;43467;50.890;5.982;2023-02-04T05:58:06;102014.09;;;8.73;91.23
36234;BME280;43467;50.890;5.982;2023-02-04T06:00:31;102021.34;;;8.52;91.13
36234;BME280;43467;50.890;5.982;2023-02-04T06:02:57;102008.91;;;8.63;91.95
36234;BME280;43467;50.890;5.982;2023-02-04T06:05:22;102014.16;;;8.67;92.11
36234;BME280;43467;50.890;5.982;2023-02-04T06:07:48;102015.88;;;8.68;91.60
36234;BME280;43467;50.890;5.982;2023-02-04T06:10:13;102021.97;;;8.78;91.17
36234;BME280;43467;50.890;5.982;2023-02-04T06:12:39;102026.38;;;8.77;90.97
36234;BME280;43467;50.890;5.982;2023-02-04T06:15:05;102028.84;;;8.93;90.87
36234;BME280;43467;50.890;5.982;2023-02-04T06:17:30;102027.03;;;8.99;89.88
36234;BME280;43467;50.890;5.982;2023-02-04T06:19:55;102032.50;;;8.84;89.59
36234;BME280;43467;50.890;5.982;2023-02-04T06:22:21;102036.06;;;8.78;90.25
36234;BME280;43467;50.890;5.982;2023-02-04T06:24:48;102034.22;;;8.86;90.60
36234;BME280;43467;50.890;5.982;2023-02-04T06:27:14;102030.00;;;8.64;90.37
36234;BME280;43467;50.890;5.982;2023-02-04T06:29:50;102043.06;;;8.81;90.80
36234;BME280;43467;50.890;5.982;2023-02-04T06:32:17;102036.06;;;8.78;90.19
36234;BME280;43467;50.890;5.982;2023-02-04T06:34:42;102048.38;;;8.76;90.56
36234;BME280;43467;50.890;5.982;2023-02-04T06:37:08;102048.56;;;8.60;90.88
36234;BME280;43467;50.890;5.982;2023-02-04T06:39:33;102059.03;;;8.69;90.88
36234;BME280;43467;50.890;5.982;2023-02-04T06:41:58;102052.81;;;8.74;90.17
36234;BME280;43467;50.890;5.982;2023-02-04T06:44:24;102051.81;;;8.84;89.56
36234;BME280;43467;50.890;5.982;2023-02-04T06:46:49;102057.97;;;8.86;89.85
36234;BME280;43467;50.890;5.982;2023-02-04T06:49:15;102062.50;;;8.72;90.02
36234;BME280;43467;50.890;5.982;2023-02-04T06:51:40;102061.84;;;8.51;90.54
36234;BME280;43467;50.890;5.982;2023-02-04T06:54:06;102068.78;;;8.62;90.32
36234;BME280;43467;50.890;5.982;2023-02-04T06:56:31;102085.47;;;8.66;90.49
36234;BME280;43467;50.890;5.982;2023-02-04T06:58:57;102083.66;;;8.69;89.42
36234;BME280;43467;50.890;5.982;2023-02-04T07:01:22;102083.56;;;8.81;89.93
36234;BME280;43467;50.890;5.982;2023-02-04T07:03:47;102083.63;;;8.72;89.40
36234;BME280;43467;50.890;5.982;2023-02-04T07:06:13;102088.91;;;8.75;90.69
36234;BME280;43467;50.890;5.982;2023-02-04T07:08:38;102079.25;;;8.71;89.56
36234;BME280;43467;50.890;5.982;2023-02-04T07:11:03;102079.22;;;8.74;89.58
36234;BME280;43467;50.890;5.982;2023-02-04T07:13:29;102081.84;;;8.79;90.19
36234;BME280;43467;50.890;5.982;2023-02-04T07:15:54;102078.22;;;8.84;89.99
36234;BME280;43467;50.890;5.982;2023-02-04T07:18:20;102081.78;;;8.83;89.24
36234;BME280;43467;50.890;5.982;2023-02-04T07:20:45;102081.78;;;8.82;89.29
36234;BME280;43467;50.890;5.982;2023-02-04T07:23:10;102087.91;;;8.87;89.21
36234;BME280;43467;50.890;5.982;2023-02-04T07:25:36;102078.19;;;8.91;89.82
36234;BME280;43467;50.890;5.982;2023-02-04T07:28:03;102093.13;;;8.93;89.37
36234;BME280;43467;50.890;5.982;2023-02-04T07:30:32;102092.34;;;8.83;89.18
36234;BME280;43467;50.890;5.982;2023-02-04T07:32:58;102100.97;;;9.01;89.54
36234;BME280;43467;50.890;5.982;2023-02-04T07:35:23;102101.00;;;8.99;89.09
36234;BME280;43467;50.890;5.982;2023-02-04T07:37:49;102102.81;;;8.94;88.76
36234;BME280;43467;50.890;5.982;2023-02-04T07:40:14;102104.50;;;9.01;88.45
36234;BME280;43467;50.890;5.982;2023-02-04T07:42:40;102101.94;;;8.94;88.42
36234;BME280;43467;50.890;5.982;2023-02-04T07:45:06;102115.03;;;9.06;88.56
36234;BME280;43467;50.890;5.982;2023-02-04T07:47:32;102109.75;;;9.07;88.98
36234;BME280;43467;50.890;5.982;2023-02-04T07:49:57;102119.41;;;9.10;88.39
36234;BME280;43467;50.890;5.982;2023-02-04T07:52:23;102116.88;;;8.99;88.04
36234;BME280;43467;50.890;5.982;2023-02-04T07:54:48;102122.06;;;9.05;87.26
36234;BME280;43467;50.890;5.982;2023-02-04T07:57:14;102121.22;;;9.02;88.24
36234;BME280;43467;50.890;5.982;2023-02-04T07:59:40;102106.44;;;8.81;88.60
36234;BME280;43467;50.890;5.982;2023-02-04T08:02:05;102122.22;;;8.88;88.33
36234;BME280;43467;50.890;5.982;2023-02-04T08:04:31;102127.50;;;8.90;88.87
36234;BME280;43467;50.890;5.982;2023-02-04T08:06:56;102131.03;;;8.91;88.84
36234;BME280;43467;50.890;5.982;2023-02-04T08:09:22;102130.16;;;8.88;88.95
36234;BME280;43467;50.890;5.982;2023-02-04T08:11:48;102125.84;;;8.78;88.63
36234;BME280;43467;50.890;5.982;2023-02-04T08:14:13;102136.38;;;8.83;89.55
36234;BME280;43467;50.890;5.982;2023-02-04T08:16:38;102146.00;;;8.90;88.96
36234;BME280;43467;50.890;5.982;2023-02-04T08:19:04;102134.59;;;8.88;89.53
36234;BME280;43467;50.890;5.982;2023-02-04T08:21:29;102139.88;;;8.85;89.40
36234;BME280;43467;50.890;5.982;2023-02-04T08:23:54;102153.84;;;8.98;88.63
36234;BME280;43467;50.890;5.982;2023-02-04T08:26:20;102146.78;;;9.03;88.42
36234;BME280;43467;50.890;5.982;2023-02-04T08:28:45;102147.63;;;9.05;88.25
36234;BME280;43467;50.890;5.982;2023-02-04T08:31:11;102155.47;;;9.14;87.77
36234;BME280;43467;50.890;5.982;2023-02-04T08:33:37;102148.47;;;9.10;87.54
36234;BME280;43467;50.890;5.982;2023-02-04T08:36:07;102155.44;;;9.18;88.11
36234;BME280;43467;50.890;5.982;2023-02-04T08:38:33;102155.50;;;9.12;87.06
36234;BME280;43467;50.890;5.982;2023-02-04T08:40:58;102164.25;;;9.19;86.43
36234;BME280;43467;50.890;5.982;2023-02-04T08:43:25;102165.22;;;9.09;87.64
36234;BME280;43467;50.890;5.982;2023-02-04T08:45:50;102162.59;;;9.09;88.23
36234;BME280;43467;50.890;5.982;2023-02-04T08:48:15;102165.16;;;9.15;87.18
36234;BME280;43467;50.890;5.982;2023-02-04T08:50:41;102166.09;;;9.08;87.18
36234;BME280;43467;50.890;5.982;2023-02-04T08:53:06;102166.13;;;9.05;87.73
36234;BME280;43467;50.890;5.982;2023-02-04T08:55:32;102176.75;;;9.00;88.92
36234;BME280;43467;50.890;5.982;2023-02-04T08:57:58;102171.59;;;8.83;87.74
36234;BME280;43467;50.890;5.982;2023-02-04T09:00:24;102175.97;;;8.84;88.10
36234;BME280;43467;50.890;5.982;2023-02-04T09:02:49;102191.91;;;8.72;88.41
36234;BME280;43467;50.890;5.982;2023-02-04T09:05:15;102190.28;;;8.53;89.71
36234;BME280;43467;50.890;5.982;2023-02-04T09:07:40;102186.75;;;8.56;90.21
36234;BME280;43467;50.890;5.982;2023-02-04T09:10:06;102180.53;;;8.67;91.16
36234;BME280;43467;50.890;5.982;2023-02-04T09:12:32;102185.69;;;8.81;90.34
36234;BME280;43467;50.890;5.982;2023-02-04T09:14:57;102183.84;;;8.92;89.09
36234;BME280;43467;50.890;5.982;2023-02-04T09:17:23;102182.03;;;8.97;88.74
36234;BME280;43467;50.890;5.982;2023-02-04T09:19:48;102188.09;;;9.13;88.11
36234;BME280;43467;50.890;5.982;2023-02-04T09:22:14;102190.75;;;9.10;87.24
36234;BME280;43467;50.890;5.982;2023-02-04T09:24:40;102187.22;;;9.12;87.53
36234;BME280;43467;50.890;5.982;2023-02-04T09:27:05;102195.03;;;9.24;87.04
36234;BME280;43467;50.890;5.982;2023-02-04T09:29:31;102194.03;;;9.36;87.51
36234;BME280;43467;50.890;5.982;2023-02-04T09:31:57;102197.50;;;9.44;86.20
36234;BME280;43467;50.890;5.982;2023-02-04T09:34:22;102192.13;;;9.53;86.34
36234;BME280;43467;50.890;5.982;2023-02-04T09:36:48;102201.72;;;9.59;85.13
36234;BME280;43467;50.890;5.982;2023-02-04T09:39:14;102201.72;;;9.60;84.20
36234;BME280;43467;50.890;5.982;2023-02-04T09:41:40;102203.53;;;9.57;83.97
36234;BME280;43467;50.890;5.982;2023-02-04T09:44:13;102190.44;;;9.45;84.63
36234;BME280;43467;50.890;5.982;2023-02-04T09:46:44;102178.94;;;9.46;84.78
36234;BME280;43467;50.890;5.982;2023-02-04T09:49:11;102190.47;;;9.39;84.46
36234;BME280;43467;50.890;5.982;2023-02-04T09:51:36;102191.44;;;9.30;84.89
36234;BME280;43467;50.890;5.982;2023-02-04T09:54:13;102197.56;;;9.37;84.63
36234;BME280;43467;50.890;5.982;2023-02-04T09:56:39;102188.63;;;9.47;84.90
36234;BME280;43467;50.890;5.982;2023-02-04T09:59:13;102199.94;;;9.62;84.41
36234;BME280;43467;50.890;5.982;2023-02-04T10:01:39;102198.06;;;9.73;84.08
36234;BME280;43467;50.890;5.982;2023-02-04T10:04:10;102199.66;;;9.90;83.92
36234;BME280;43467;50.890;5.982;2023-02-04T10:06:36;102196.03;;;9.97;83.23
36234;BME280;43467;50.890;5.982;2023-02-04T10:09:03;102207.41;;;10.05;82.55
36234;BME280;43467;50.890;5.982;2023-02-04T10:11:32;102204.66;;;10.11;81.99
36234;BME280;43467;50.890;5.982;2023-02-04T10:14:00;102221.41;;;10.16;81.27
36234;BME280;43467;50.890;5.982;2023-02-04T10:16:29;102206.41;;;10.15;81.27
36234;BME280;43467;50.890;5.982;2023-02-04T10:18:59;102216.06;;;10.19;81.30
36234;BME280;43467;50.890;5.982;2023-02-04T10:21:28;102226.59;;;10.23;81.57
36234;BME280;43467;50.890;5.982;2023-02-04T10:23:55;102224.75;;;10.30;81.82
36234;BME280;43467;50.890;5.982;2023-02-04T10:26:22;102232.66;;;10.35;80.74
36234;BME280;43467;50.890;5.982;2023-02-04T10:28:48;102217.72;;;10.29;80.23
36234;BME280;43467;50.890;5.982;2023-02-04T10:31:36;102235.25;;;10.36;78.89
36234;BME280;43467;50.890;5.982;2023-02-04T10:36:28;102227.09;;;10.53;80.78
36234;BME280;43467;50.890;5.982;2023-02-04T10:39:05;102222.59;;;10.59;79.67
36234;BME280;43467;50.890;5.982;2023-02-04T10:41:35;102225.22;;;10.61;79.33
36234;BME280;43467;50.890;5.982;2023-02-04T10:44:10;102223.38;;;10.67;79.71
36234;BME280;43467;50.890;5.982;2023-02-04T10:46:36;102233.28;;;10.52;79.93
36234;BME280;43467;50.890;5.982;2023-02-04T10:49:24;102228.19;;;10.38;78.31
36234;BME280;43467;50.890;5.982;2023-02-04T10:51:50;102222.84;;;10.41;79.34
36234;BME280;43467;50.890;5.982;2023-02-04T10:54:19;102212.38;;;10.32;78.86
36234;BME280;43467;50.890;5.982;2023-02-04T10:57:22;102222.66;;;10.55;78.91
36234;BME280;43467;50.890;5.982;2023-02-04T10:59:54;102211.97;;;10.61;78.74
36234;BME280;43467;50.890;5.982;2023-02-04T11:05:03;102212.03;;;10.58;78.85
36234;BME280;43467;50.890;5.982;2023-02-04T11:07:30;102220.16;;;10.44;76.68
36234;BME280;43467;50.890;5.982;2023-02-04T11:09:56;102222.13;;;10.27;78.28
36234;BME280;43467;50.890;5.982;2023-02-04T11:12:35;102216.78;;;10.32;79.74
36234;BME280;43467;50.890;5.982;2023-02-04T11:15:01;102213.13;;;10.43;79.72
36234;BME280;43467;50.890;5.982;2023-02-04T11:17:31;102225.50;;;10.41;79.15
36234;BME280;43467;50.890;5.982;2023-02-04T11:19:57;102222.94;;;10.34;78.40
36234;BME280;43467;50.890;5.982;2023-02-04T11:22:41;102221.19;;;10.34;78.49
36234;BME280;43467;50.890;5.982;2023-02-04T11:25:35;102236.41;;;10.11;77.60
36234;BME280;43467;50.890;5.982;2023-02-04T11:28:46;102232.72;;;10.27;79.29
36234;BME280;43467;50.890;5.982;2023-02-04T11:31:26;102234.66;;;10.11;79.54
36234;BME280;43467;50.890;5.982;2023-02-04T11:39:33;102224.72;;;10.35;79.99
36234;BME280;43467;50.890;5.982;2023-02-04T11:42:00;102222.28;;;10.18;79.41
36234;BME280;43467;50.890;5.982;2023-02-04T11:44:25;102224.72;;;10.35;80.08
36234;BME280;43467;50.890;5.982;2023-02-04T11:46:52;102221.06;;;10.43;79.40
36234;BME280;43467;50.890;5.982;2023-02-04T11:49:23;102215.72;;;10.45;78.02
36234;BME280;43467;50.890;5.982;2023-02-04T11:51:50;102217.66;;;10.34;78.97
36234;BME280;43467;50.890;5.982;2023-02-04T11:54:16;102227.38;;;10.33;78.31
36234;BME280;43467;50.890;5.982;2023-02-04T11:56:46;102227.41;;;10.30;78.93
36234;BME280;43467;50.890;5.982;2023-02-04T11:59:13;102222.06;;;10.32;78.71
36234;BME280;43467;50.890;5.982;2023-02-04T12:01:38;102224.03;;;10.17;78.04
36234;BME280;43467;50.890;5.982;2023-02-04T12:04:07;102220.41;;;10.23;77.64
36234;BME280;43467;50.890;5.982;2023-02-04T12:06:35;102220.59;;;10.08;78.56
36234;BME280;43467;50.890;5.982;2023-02-04T12:11:59;102218.75;;;10.16;80.05
36234;BME280;43467;50.890;5.982;2023-02-04T12:14:33;102211.75;;;10.10;79.80
36234;BME280;43467;50.890;5.982;2023-02-04T12:16:59;102215.84;;;10.36;79.58
36234;BME280;43467;50.890;5.982;2023-02-04T12:19:26;102210.81;;;10.17;80.27
36234;BME280;43467;50.890;5.982;2023-02-04T12:21:52;102215.06;;;10.31;80.33
36234;BME280;43467;50.890;5.982;2023-02-04T12:24:17;102228.47;;;10.14;79.73
36234;BME280;43467;50.890;5.982;2023-02-04T12:26:43;102217.72;;;10.29;80.11
36234;BME280;43467;50.890;5.982;2023-02-04T12:29:08;102216.84;;;10.29;79.34
36234;BME280;43467;50.890;5.982;2023-02-04T12:31:34;102217.88;;;10.11;79.18
36234;BME280;43467;50.890;5.982;2023-02-04T12:34:00;102216.00;;;10.25;79.50
36234;BME280;43467;50.890;5.982;2023-02-04T12:36:26;102214.28;;;10.21;78.45
36234;BME280;43467;50.890;5.982;2023-02-04T12:38:54;102207.94;;;10.34;78.17
36234;BME280;43467;50.890;5.982;2023-02-04T12:41:19;102223.72;;;10.42;77.91
36234;BME280;43467;50.890;5.982;2023-02-04T12:43:45;102212.13;;;10.50;77.78
36234;BME280;43467;50.890;5.982;2023-02-04T12:46:11;102226.16;;;10.58;77.91
36234;BME280;43467;50.890;5.982;2023-02-04T12:48:36;102227.91;;;10.58;78.12
36234;BME280;43467;50.890;5.982;2023-02-04T12:51:06;102225.16;;;10.64;77.00
36234;BME280;43467;50.890;5.982;2023-02-04T12:53:31;102211.47;;;10.32;76.40
36234;BME280;43467;50.890;5.982;2023-02-04T12:55:57;102236.88;;;10.48;76.98
36234;BME280;43467;50.890;5.982;2023-02-04T12:58:22;102235.34;;;10.30;77.02
36234;BME280;43467;50.890;5.982;2023-02-04T13:00:47;102234.41;;;10.34;76.86
36234;BME280;43467;50.890;5.982;2023-02-04T13:03:13;102235.00;;;10.56;77.04
36234;BME280;43467;50.890;5.982;2023-02-04T13:05:38;102239.22;;;10.70;76.59
36234;BME280;43467;50.890;5.982;2023-02-04T13:08:04;102231.41;;;10.60;77.06